Arrey, New Mexico
Current Conditions -  °F | °C
As of 3:53 PM on Thursday 18 Dec 2014 (Local Time) from KTCS Reporting Station
Overcast Overcast  
Wind Chill: 45°   Ceiling: 7500
Heat Index: 47°   Visibility: 10mi
Dew Point: 36°   Wind: 5mph
Humidity: 66%   Direction: 120°ESE
Pressure: 30.04"   Gusts: NA
Location:  32.79°N, 107.32°W
Report Text: KTCS 182253Z AUTO 12004KT 10SM BKN075 OVC090 08/02 A3004 RMK AO2 RAE2158 SLP151 P0000 T00830022 TSNO
Loading
Personal Weather Stations






























Interactive Weather Map New forecast layout! Learn more

10-Day Weather Forecast

Advertisements
Track Severe Weather on mobile